Dubois, ID (83423)

4:30 AM MDT on May 26, 2015 (GMT -0600)
ITD | | Change Station
CLOSE
Current Station
Personal Weather Station
Location: Spencer, ID
Elevation: 5799 ft
Nearby Weather Stations

Elev 5799 ft 44.32 °N, 112.18 °W | Updated 45 minutes ago

Partly Cloudy
Partly Cloudy
48 °F
Feels Like 44 °F
N
10
Wind Variable Wind from NNE
Gusts 12.0 mph

Today
High -- | Low -- °F
--% Chance of Precip.
Yesterday
High -- | Low -- °F
Precip. -- in
5:52 AM 9:00 PM
First Quarter, 57% visible
Pressure 29.90 in
Visibility 10.0 miles
Clouds Overcast 11000 ft
Windchill 44 °F
Dew Point 45 °F
Humidity 88%
Rainfall in
Snow Depth Not available.
UV 0 out of 12
Pollen 6.00 out of 12
Air Quality Not available.
Flu Activity Sporadic
METAR KRXE 260953Z AUTO 00000KT 10SM OVC110 10/06 A2998 RMK AO2 SLP123 T01000061

More Conditions Fewer Conditions

Pressure 29.90 in
Visibility 10.0 miles
Clouds Overcast 11000 ft
Windchill 44 °F
Dew Point 45 °F
Humidity 88%
Rainfall in
Snow Depth Not available.
UV 0 out of 12
Pollen 6.00 out of 12
Air Quality Not available.
Flu Activity Sporadic
METAR KRXE 260953Z AUTO 00000KT 10SM OVC110 10/06 A2998 RMK AO2 SLP123 T01000061

More Conditions Fewer Conditions

10-Day Weather Forecast

Almanac

Astronomy

May. 26, 2015 Rise Set
Actual Time
Civil Twilight
Nautical Twilight
Astronomical Twilight
Moon
Length of Visible Light
Length of Day
Tomorrow will be .
, % of the Moon is Illuminated

Today's Extremes

State Highs State Lows

Community

WunderPhotos

Upload Photos

1,824,305 photos uploaded!

WunderBlogs® & News

Nearby

Air Quality

  Air Quality AQ Index Pollutant
Not available.

Snow Depth

Station Depth Elevation

Earthquake Activity

City Distance Mag. Time & Date
Minimum magnitude displayed is 2.5.

Coastal Water Temperatures

Place Temperature

Stations

Nearby Weather Stations

Station Location Temp. Windchill Dew Point Humidity Wind Precip. Elev Updated Type